createdAt,value
2018-07-03T02:12:57.134Z,31.10
2018-07-03T02:15:31.734Z,31.00
2018-07-03T02:20:38.107Z,30.90
2018-07-03T02:26:17.753Z,30.90
2018-07-03T02:28:49.641Z,30.80
2018-07-03T02:31:21.766Z,30.90
2018-07-03T02:33:54.091Z,31.00
2018-07-03T02:36:26.102Z,31.00
2018-07-03T02:38:57.873Z,31.00
2018-07-03T02:41:29.826Z,31.00
2018-07-03T02:44:01.542Z,31.00
2018-07-03T02:46:33.397Z,31.20
2018-07-03T02:49:05.255Z,31.20
2018-07-03T02:54:09.713Z,31.40
2018-07-03T02:56:41.784Z,31.60
2018-07-03T02:59:13.522Z,31.60
2018-07-03T03:01:45.626Z,31.70
2018-07-03T03:04:17.550Z,31.80
2018-07-03T03:09:20.539Z,32.10
2018-07-03T03:11:52.766Z,32.20
2018-07-03T03:14:25.546Z,32.40
2018-07-03T03:16:57.567Z,32.40
2018-07-03T03:19:29.323Z,32.70
2018-07-03T03:22:01.471Z,32.80
2018-07-03T03:24:33.386Z,33.10
2018-07-03T03:27:05.618Z,33.10
2018-07-03T03:29:37.441Z,33.30
2018-07-03T03:32:09.562Z,33.40
2018-07-03T03:34:41.509Z,33.60
2018-07-03T03:37:13.629Z,33.70
2018-07-03T03:39:45.920Z,33.90
2018-07-03T03:42:18.118Z,34.00
2018-07-03T03:44:50.079Z,34.20
2018-07-03T03:47:22.239Z,34.20
2018-07-03T03:49:54.897Z,34.40
2018-07-03T03:52:27.790Z,34.60
2018-07-03T03:54:59.661Z,34.60
2018-07-03T03:57:31.770Z,34.60
2018-07-03T04:00:04.742Z,34.90
2018-07-03T04:02:36.882Z,35.20
2018-07-03T04:05:08.631Z,35.30
2018-07-03T04:07:41.154Z,35.50
2018-07-03T04:10:12.719Z,35.60
2018-07-03T04:12:45.642Z,35.60
2018-07-03T04:15:18.946Z,35.80
2018-07-03T04:17:50.797Z,35.80
2018-07-03T04:20:23.747Z,35.60
2018-07-03T04:22:56.881Z,35.70
2018-07-03T04:25:28.609Z,36.10
2018-07-03T04:28:01.372Z,36.50
2018-07-03T04:30:33.320Z,36.80
2018-07-03T04:33:06.046Z,36.90
2018-07-03T04:35:37.875Z,37.20
2018-07-03T04:38:09.863Z,37.10
2018-07-03T04:40:42.429Z,37.40
2018-07-03T04:43:14.531Z,37.70
2018-07-03T04:45:48.879Z,37.80
2018-07-03T04:48:20.935Z,37.90
2018-07-03T04:50:53.085Z,38.40
2018-07-03T04:53:25.352Z,38.50
2018-07-03T04:55:57.198Z,39.10
2018-07-03T04:58:29.271Z,40.20
2018-07-03T05:01:00.966Z,40.70
2018-07-03T05:03:33.763Z,41.60
2018-07-03T05:06:05.813Z,41.30
2018-07-03T05:08:38.450Z,41.40
2018-07-03T05:11:10.203Z,42.00
2018-07-03T05:13:42.363Z,41.20
2018-07-03T05:16:15.255Z,40.80
2018-07-03T05:18:47.219Z,40.50
2018-07-03T05:21:18.974Z,40.60
2018-07-03T05:23:51.519Z,40.80
2018-07-03T05:26:23.286Z,40.20
2018-07-03T05:28:55.590Z,40.80
2018-07-03T05:31:27.394Z,41.60
2018-07-03T05:33:59.387Z,42.70
2018-07-03T05:36:31.298Z,43.30
2018-07-03T05:39:03.677Z,43.60
2018-07-03T05:41:35.682Z,44.10
2018-07-03T05:44:08.105Z,44.30
2018-07-03T05:46:41.122Z,42.80
2018-07-03T05:49:13.955Z,42.90
2018-07-03T05:51:45.726Z,43.10
2018-07-03T05:54:17.806Z,42.70
2018-07-03T05:59:20.590Z,41.50
2018-07-03T06:01:52.151Z,41.10
2018-07-03T06:04:24.210Z,41.20
2018-07-03T06:06:56.126Z,41.90
2018-07-03T06:09:28.403Z,41.90
2018-07-03T06:14:31.761Z,42.00
2018-07-03T06:17:05.942Z,43.10
2018-07-03T06:19:37.733Z,43.50
2018-07-03T06:22:09.940Z,44.10
2018-07-03T06:24:42.087Z,44.60
2018-07-03T06:27:13.898Z,45.10
2018-07-03T06:29:46.446Z,45.20
2018-07-03T06:32:18.540Z,44.70
2018-07-03T06:34:50.537Z,44.60
2018-07-03T06:37:22.287Z,43.80
2018-07-03T06:39:54.918Z,44.10
2018-07-03T06:42:28.224Z,43.30
2018-07-03T06:45:00.220Z,42.60
2018-07-03T06:47:32.655Z,42.60
2018-07-03T06:50:05.857Z,42.80
2018-07-03T06:52:37.663Z,42.20
2018-07-03T06:55:09.774Z,41.90
2018-07-03T06:57:41.467Z,41.90
2018-07-03T07:00:13.375Z,42.20
2018-07-03T07:02:45.410Z,41.90
2018-07-03T07:05:17.516Z,42.00
2018-07-03T07:07:49.462Z,42.10
2018-07-03T07:10:24.579Z,42.50
2018-07-03T07:15:31.449Z,42.30
2018-07-03T07:18:07.179Z,42.20
2018-07-03T07:20:42.516Z,43.20
2018-07-03T07:25:51.014Z,43.90
2018-07-03T07:28:24.770Z,44.40
2018-07-03T07:30:58.426Z,45.30
2018-07-03T07:33:33.322Z,45.60
2018-07-03T07:36:07.927Z,45.40
2018-07-03T07:38:42.661Z,44.60
2018-07-03T07:41:16.856Z,45.00
2018-07-03T07:43:50.431Z,44.80
2018-07-03T07:48:58.726Z,43.30
2018-07-03T07:51:33.622Z,42.80
2018-07-03T07:54:10.043Z,42.60
2018-07-03T07:56:45.238Z,41.80
2018-07-03T07:59:20.759Z,41.40
2018-07-03T08:01:54.398Z,41.20
2018-07-03T08:04:28.214Z,41.20
2018-07-03T08:07:01.279Z,41.00
2018-07-03T08:09:35.435Z,40.80
2018-07-03T08:12:10.151Z,40.80
2018-07-03T08:14:45.073Z,41.00
2018-07-03T08:17:20.020Z,41.00
2018-07-03T08:19:55.970Z,40.90
2018-07-03T08:22:30.110Z,40.90
2018-07-03T08:25:05.501Z,40.80
2018-07-03T08:27:39.854Z,40.60
2018-07-03T08:30:14.969Z,40.90
2018-07-03T08:32:48.630Z,40.70
2018-07-03T08:35:22.872Z,40.90
2018-07-03T08:37:57.277Z,41.10
2018-07-03T08:40:34.466Z,41.20
2018-07-03T08:43:09.320Z,41.10
2018-07-03T08:45:44.866Z,40.90
2018-07-03T08:48:19.684Z,41.20
2018-07-03T08:50:53.558Z,40.80
2018-07-03T08:53:27.613Z,40.70
2018-07-03T08:56:02.385Z,40.70
2018-07-03T08:58:39.683Z,41.00
2018-07-03T09:01:13.682Z,41.20
2018-07-03T09:03:49.422Z,41.10
2018-07-03T09:06:23.735Z,41.20
2018-07-03T09:08:59.319Z,41.10
2018-07-03T09:11:33.813Z,41.10
2018-07-03T09:14:08.275Z,41.10
2018-07-03T09:16:41.779Z,41.10
2018-07-03T09:19:16.888Z,41.10
2018-07-03T09:21:53.330Z,41.00
2018-07-03T09:24:29.645Z,41.10
2018-07-03T09:27:03.211Z,41.00
2018-07-03T09:29:40.076Z,40.90
2018-07-03T09:32:15.326Z,40.80
2018-07-03T09:37:23.326Z,40.60
2018-07-03T09:39:59.019Z,40.60
2018-07-03T09:42:32.305Z,40.70
2018-07-03T09:45:06.157Z,40.50
2018-07-03T09:47:41.902Z,40.70
2018-07-03T09:50:16.269Z,40.70
2018-07-03T09:52:52.211Z,40.70
2018-07-03T09:55:28.026Z,40.60
2018-07-03T09:58:03.196Z,40.80
2018-07-03T10:00:41.862Z,40.60
2018-07-03T10:03:16.030Z,40.70
2018-07-03T10:05:50.214Z,40.70
2018-07-03T10:10:57.966Z,40.60
2018-07-03T10:13:32.294Z,40.70
2018-07-03T10:16:09.802Z,40.70
2018-07-03T10:18:42.934Z,40.60
2018-07-03T10:21:17.537Z,40.80
2018-07-03T10:23:51.181Z,40.70
2018-07-03T10:26:27.958Z,40.70
2018-07-03T10:29:01.672Z,40.90
2018-07-03T10:31:36.911Z,40.80
2018-07-03T10:34:15.133Z,40.60
2018-07-03T10:36:50.243Z,40.60
2018-07-03T10:39:25.244Z,40.60
2018-07-03T10:41:59.910Z,40.60
2018-07-03T10:44:34.399Z,40.60
2018-07-03T10:47:09.972Z,40.60
2018-07-03T10:49:44.207Z,40.50
2018-07-03T10:52:17.339Z,40.20
2018-07-03T10:54:50.853Z,40.30
2018-07-03T10:57:24.435Z,40.10
2018-07-03T10:59:58.714Z,40.10
2018-07-03T11:02:32.283Z,40.00
2018-07-03T11:05:11.425Z,40.00
2018-07-03T11:07:46.203Z,39.90
2018-07-03T11:10:19.955Z,39.70
2018-07-03T11:12:57.135Z,39.80
2018-07-03T11:15:31.084Z,39.90
2018-07-03T11:18:06.661Z,40.00
2018-07-03T11:20:42.874Z,40.10
2018-07-03T11:23:18.653Z,40.00
2018-07-03T11:25:57.835Z,40.00
2018-07-03T11:31:05.727Z,39.90
2018-07-03T11:33:41.168Z,39.90
2018-07-03T11:36:14.423Z,40.00
2018-07-03T11:38:50.919Z,40.00
2018-07-03T11:41:26.559Z,39.80
2018-07-03T11:44:01.801Z,39.80
2018-07-03T11:46:36.310Z,39.80
2018-07-03T11:49:11.575Z,39.70
2018-07-03T11:51:46.875Z,39.70
2018-07-03T11:54:21.550Z,39.80
2018-07-03T11:56:56.245Z,39.80
2018-07-03T11:59:31.799Z,39.70
2018-07-03T12:02:05.403Z,39.80
2018-07-03T12:04:39.562Z,39.70
2018-07-03T12:07:12.810Z,39.80
2018-07-03T12:09:47.356Z,39.80
2018-07-03T12:12:20.476Z,39.70
2018-07-03T12:14:55.000Z,39.80
2018-07-03T12:17:28.459Z,39.80
2018-07-03T12:20:03.070Z,39.80
2018-07-03T12:22:36.789Z,39.70
2018-07-03T12:25:11.743Z,39.80
2018-07-03T12:27:47.051Z,39.80
2018-07-03T12:30:21.948Z,39.80
2018-07-03T12:32:58.365Z,39.90
2018-07-03T12:35:34.064Z,39.80
2018-07-03T12:38:09.539Z,39.80
2018-07-03T12:40:46.630Z,39.70
2018-07-03T12:43:21.009Z,39.60
2018-07-03T12:45:55.995Z,39.50
2018-07-03T12:48:31.632Z,39.40
2018-07-03T12:51:05.335Z,39.20
2018-07-03T12:53:39.393Z,39.20
2018-07-03T12:56:18.055Z,39.10
2018-07-03T12:58:55.302Z,39.00
2018-07-03T13:01:30.044Z,38.90
2018-07-03T13:04:03.727Z,38.80
2018-07-03T13:06:37.738Z,38.70
2018-07-03T13:09:14.207Z,38.70
2018-07-03T13:11:50.667Z,38.80
2018-07-03T13:14:24.842Z,38.80
2018-07-03T13:16:59.278Z,38.70
2018-07-03T13:22:03.763Z,38.70
2018-07-03T13:24:37.395Z,38.60
2018-07-03T13:27:11.682Z,38.70
2018-07-03T13:29:47.871Z,38.60
2018-07-03T13:32:22.343Z,38.70
2018-07-03T13:34:55.717Z,38.60
2018-07-03T13:37:27.680Z,38.50
2018-07-03T13:39:59.585Z,38.60
2018-07-03T13:42:31.543Z,38.70
2018-07-03T13:45:03.259Z,38.80
2018-07-03T13:47:35.459Z,38.80
2018-07-03T13:50:07.796Z,38.70
2018-07-03T13:52:39.803Z,38.80
2018-07-03T13:55:11.594Z,38.70
2018-07-03T13:57:43.671Z,38.70
2018-07-03T14:00:15.417Z,38.50
2018-07-03T14:02:47.363Z,38.40
2018-07-03T14:05:19.265Z,38.20
2018-07-03T14:07:51.636Z,38.10
2018-07-03T14:10:23.463Z,38.00
2018-07-03T14:12:55.490Z,38.00
2018-07-03T14:15:26.983Z,37.90
2018-07-03T14:17:58.597Z,37.90
2018-07-03T14:20:30.431Z,37.80
2018-07-03T14:23:02.325Z,37.80
2018-07-03T14:25:34.219Z,37.70
2018-07-03T14:28:06.189Z,37.70
2018-07-03T14:33:10.798Z,37.70
2018-07-03T14:38:13.740Z,37.60
2018-07-03T14:40:45.579Z,37.40
2018-07-03T14:43:17.516Z,37.40
2018-07-03T14:45:49.096Z,37.50
2018-07-03T14:48:21.159Z,37.30
2018-07-03T14:50:52.875Z,37.30
2018-07-03T14:53:24.891Z,37.30
2018-07-03T14:55:56.710Z,37.20
2018-07-03T14:58:28.897Z,37.20
2018-07-03T15:01:00.592Z,37.10
2018-07-03T15:03:32.689Z,37.10
2018-07-03T15:06:04.366Z,37.10
2018-07-03T15:08:36.747Z,37.00
2018-07-03T15:11:08.553Z,37.00
2018-07-03T15:13:40.378Z,37.00
2018-07-03T15:16:13.507Z,37.00
2018-07-03T15:18:50.272Z,36.90
2018-07-03T15:21:21.949Z,36.80
2018-07-03T15:23:54.090Z,36.70
2018-07-03T15:26:25.920Z,36.70
2018-07-03T15:28:58.013Z,36.60
2018-07-03T15:31:31.178Z,36.60
2018-07-03T15:34:02.959Z,36.60
2018-07-03T15:36:34.806Z,36.60
2018-07-03T15:39:09.026Z,36.60
2018-07-03T15:41:41.162Z,36.50
2018-07-03T15:44:22.892Z,36.50
2018-07-03T15:46:54.438Z,36.50
2018-07-03T15:49:26.506Z,36.50
2018-07-03T15:51:58.223Z,36.40
2018-07-03T15:54:30.320Z,36.40
2018-07-03T15:57:02.226Z,36.40
2018-07-03T15:59:34.538Z,36.30
2018-07-03T16:02:06.358Z,36.30
2018-07-03T16:04:54.404Z,36.30
2018-07-03T16:07:36.320Z,36.30
2018-07-03T16:15:11.231Z,36.20
2018-07-03T16:17:43.122Z,36.20
2018-07-03T16:20:19.971Z,36.20
2018-07-03T16:22:58.312Z,36.10
2018-07-03T16:25:31.003Z,36.10
2018-07-03T16:30:34.034Z,36.20
2018-07-03T16:33:11.422Z,36.10
2018-07-03T16:35:44.257Z,36.10
2018-07-03T16:40:47.119Z,36.10
2018-07-03T16:43:19.141Z,36.00
2018-07-03T16:45:51.263Z,36.00
2018-07-03T16:48:23.250Z,36.00
2018-07-03T16:50:55.278Z,36.00
2018-07-03T16:53:26.973Z,36.00
2018-07-03T16:58:29.812Z,35.90
2018-07-03T17:01:03.850Z,35.90
2018-07-03T17:03:36.252Z,35.80
2018-07-03T17:08:40.975Z,35.80
2018-07-03T17:11:13.394Z,35.80
2018-07-03T17:13:46.445Z,35.70
2018-07-03T17:16:18.652Z,35.70
2018-07-03T17:21:28.413Z,35.70
2018-07-03T17:24:00.063Z,35.70
2018-07-03T17:26:48.443Z,35.70
